createdAt,value
2018-12-08T00:00:54.804Z,7.03
2018-12-08T00:03:22.236Z,8.77
2018-12-08T00:05:49.673Z,9.50
2018-12-08T00:08:17.157Z,8.53
2018-12-08T00:10:44.637Z,9.77
2018-12-08T00:13:12.063Z,9.17
2018-12-08T00:15:39.499Z,11.77
2018-12-08T00:18:06.925Z,9.50
2018-12-08T00:20:34.366Z,8.47
2018-12-08T00:23:01.789Z,8.60
2018-12-08T00:25:29.232Z,11.40
2018-12-08T00:27:56.665Z,12.03
2018-12-08T00:33:26.745Z,7.97
2018-12-08T00:35:54.225Z,8.40
2018-12-08T00:38:21.799Z,7.77
2018-12-08T00:40:49.288Z,8.77
2018-12-08T00:43:16.760Z,5.13
2018-12-08T00:45:44.246Z,12.03
2018-12-08T00:48:11.807Z,7.10
2018-12-08T00:50:39.303Z,9.73
2018-12-08T00:53:06.776Z,10.27
2018-12-08T00:55:34.255Z,11.83
2018-12-08T00:58:01.889Z,11.97
2018-12-08T01:00:29.357Z,10.57
2018-12-08T01:02:56.897Z,13.03
2018-12-08T01:05:24.373Z,7.23
2018-12-08T01:07:51.888Z,9.23
2018-12-08T01:10:19.388Z,10.33
2018-12-08T01:12:48.025Z,14.40
2018-12-08T01:15:15.505Z,9.97
2018-12-08T01:17:42.983Z,11.30
2018-12-08T01:20:10.453Z,8.57
2018-12-08T01:22:37.945Z,7.53
2018-12-08T01:25:05.433Z,6.53
2018-12-08T01:27:32.898Z,7.87
2018-12-08T01:30:00.382Z,8.27
2018-12-08T01:32:27.854Z,6.63
2018-12-08T01:34:55.446Z,5.40
2018-12-08T01:37:22.923Z,5.87
2018-12-08T01:39:50.406Z,5.10
2018-12-08T01:42:17.891Z,5.00
2018-12-08T01:44:45.469Z,6.90
2018-12-08T01:47:12.949Z,8.10
2018-12-08T01:49:40.421Z,5.37
2018-12-08T01:52:07.897Z,7.30
2018-12-08T01:54:35.392Z,9.37
2018-12-08T01:57:02.867Z,8.53
2018-12-08T01:59:30.456Z,8.87
2018-12-08T02:01:57.938Z,5.00
2018-12-08T02:04:25.423Z,11.00
2018-12-08T02:06:52.914Z,10.77
2018-12-08T02:09:21.510Z,12.03
2018-12-08T02:11:49.098Z,7.13
2018-12-08T02:14:16.552Z,9.33
2018-12-08T02:16:44.039Z,11.20
2018-12-08T02:19:11.629Z,8.27
2018-12-08T02:21:39.109Z,9.77
2018-12-08T02:24:06.591Z,9.87
2018-12-08T02:26:34.069Z,12.70
2018-12-08T02:29:01.624Z,10.20
2018-12-08T02:31:29.118Z,7.30
2018-12-08T02:33:56.608Z,6.67
2018-12-08T02:36:24.090Z,10.47
2018-12-08T02:38:51.647Z,9.97
2018-12-08T02:41:19.115Z,7.70
2018-12-08T02:43:46.706Z,7.53
2018-12-08T02:46:16.467Z,12.57
2018-12-08T02:48:43.707Z,6.93
2018-12-08T02:51:11.197Z,12.23
2018-12-08T02:53:38.802Z,10.77
2018-12-08T02:56:06.275Z,6.80
2018-12-08T02:58:33.746Z,9.07
2018-12-08T03:01:01.227Z,11.37
2018-12-08T03:03:28.796Z,10.10
2018-12-08T03:05:56.289Z,10.00
2018-12-08T03:08:23.752Z,11.13
2018-12-08T03:10:51.246Z,9.70
2018-12-08T03:13:18.720Z,10.60
2018-12-08T03:15:46.195Z,7.03
2018-12-08T03:18:13.786Z,10.17
2018-12-08T03:20:41.257Z,9.47
2018-12-08T03:23:08.719Z,9.07
2018-12-08T03:25:36.190Z,8.53
2018-12-08T03:28:03.801Z,9.43
2018-12-08T03:30:31.294Z,12.47
2018-12-08T03:32:58.874Z,7.93
2018-12-08T03:35:27.355Z,9.53
2018-12-08T03:37:54.824Z,7.67
2018-12-08T03:40:22.418Z,9.73
2018-12-08T03:42:49.994Z,9.03
2018-12-08T03:45:17.491Z,13.77
2018-12-08T03:47:44.974Z,14.87
2018-12-08T03:50:12.531Z,6.00
2018-12-08T03:52:40.009Z,10.17
2018-12-08T03:55:07.485Z,12.67
2018-12-08T03:57:34.979Z,10.90
2018-12-08T04:00:02.667Z,8.63
2018-12-08T04:02:30.145Z,11.43
2018-12-08T04:04:57.719Z,11.33
2018-12-08T04:07:25.223Z,10.17
2018-12-08T04:09:52.804Z,11.67
2018-12-08T04:12:20.295Z,10.37
2018-12-08T04:14:47.925Z,9.53
2018-12-08T04:17:15.424Z,9.77
2018-12-08T04:19:42.911Z,8.10
2018-12-08T04:22:10.389Z,11.23
2018-12-08T04:24:38.069Z,9.97
2018-12-08T04:27:05.592Z,10.43
2018-12-08T04:29:33.132Z,9.90
2018-12-08T04:32:00.712Z,9.20
2018-12-08T04:34:28.292Z,13.40
2018-12-08T04:36:55.795Z,5.93
2018-12-08T04:39:23.270Z,10.90
2018-12-08T04:41:50.743Z,9.67
2018-12-08T04:44:18.310Z,8.77
2018-12-08T04:46:45.796Z,7.17
2018-12-08T04:49:14.386Z,11.90
2018-12-08T04:51:41.867Z,9.00
2018-12-08T04:54:10.362Z,8.43
2018-12-08T04:56:37.842Z,7.27
2018-12-08T04:59:05.457Z,7.97
2018-12-08T05:01:32.954Z,8.03
2018-12-08T05:04:00.496Z,13.00
2018-12-08T05:06:27.983Z,9.57
2018-12-08T05:08:55.559Z,11.13
2018-12-08T05:11:23.034Z,10.00
2018-12-08T05:13:50.518Z,11.07
2018-12-08T05:16:18.016Z,12.83
2018-12-08T05:18:45.561Z,12.47
2018-12-08T05:21:13.036Z,7.87
2018-12-08T05:23:41.651Z,9.43
2018-12-08T05:26:09.127Z,13.90
2018-12-08T05:28:36.606Z,8.17
2018-12-08T05:31:04.096Z,8.33
2018-12-08T05:33:31.591Z,10.17
2018-12-08T05:35:59.077Z,17.03
2018-12-08T05:38:26.563Z,11.40
2018-12-08T05:40:54.040Z,10.60
2018-12-08T05:43:21.534Z,10.37
2018-12-08T05:45:49.003Z,9.60
2018-12-08T05:48:16.490Z,10.10
2018-12-08T05:50:44.027Z,7.90
2018-12-08T05:53:11.513Z,10.10
2018-12-08T05:55:38.989Z,7.00
2018-12-08T05:58:06.474Z,15.27
2018-12-08T06:00:34.193Z,11.70
2018-12-08T06:03:01.674Z,7.87
2018-12-08T06:05:29.166Z,9.37
2018-12-08T06:07:58.673Z,11.90
2018-12-08T06:10:26.110Z,6.57
2018-12-08T06:12:53.608Z,10.63
2018-12-08T06:15:21.095Z,6.90
2018-12-08T06:17:48.585Z,9.83
2018-12-08T06:20:16.049Z,9.60
2018-12-08T06:22:43.538Z,11.07
2018-12-08T06:25:13.755Z,11.50
2018-12-08T06:27:45.149Z,8.40
2018-12-08T06:30:12.643Z,13.27
2018-12-08T06:32:40.119Z,8.00
2018-12-08T06:35:07.585Z,15.23
2018-12-08T06:37:35.096Z,13.07
2018-12-08T06:40:03.032Z,11.07
2018-12-08T06:42:30.528Z,13.43
2018-12-08T06:44:58.012Z,10.57
2018-12-08T06:47:25.494Z,8.67
2018-12-08T06:49:52.969Z,10.93
2018-12-08T06:52:20.463Z,10.17
2018-12-08T06:54:47.938Z,12.77
2018-12-08T06:57:15.462Z,14.80
2018-12-08T06:59:42.917Z,8.20
2018-12-08T07:02:10.506Z,12.20
2018-12-08T07:04:37.974Z,12.30
2018-12-08T07:07:08.868Z,14.23
2018-12-08T07:09:36.364Z,10.10
2018-12-08T07:12:03.846Z,9.93
2018-12-08T07:14:31.340Z,17.73
2018-12-08T07:16:58.910Z,10.33
2018-12-08T07:19:26.390Z,11.60
2018-12-08T07:21:53.973Z,11.60
2018-12-08T07:24:21.468Z,11.83
2018-12-08T07:26:49.017Z,10.45
2018-12-08T07:29:16.502Z,13.20
2018-12-08T07:31:43.986Z,8.33
2018-12-08T07:34:12.507Z,12.18
2018-12-08T07:36:39.987Z,9.20
2018-12-08T07:39:07.561Z,11.48
2018-12-08T07:41:35.031Z,9.23
2018-12-08T07:44:02.527Z,11.37
2018-12-08T07:46:30.013Z,14.83
2018-12-08T07:48:57.515Z,10.77
2018-12-08T07:51:24.992Z,10.03
2018-12-08T07:53:52.476Z,12.90
2018-12-08T07:56:21.919Z,7.10
2018-12-08T07:58:49.405Z,8.47
2018-12-08T08:01:16.922Z,7.30
2018-12-08T08:03:44.494Z,8.60
2018-12-08T08:06:11.979Z,7.63
2018-12-08T08:08:39.518Z,6.13
2018-12-08T08:11:07.161Z,5.80
2018-12-08T08:13:34.764Z,9.40
2018-12-08T08:16:02.280Z,8.15
2018-12-08T08:18:29.795Z,6.67
2018-12-08T08:20:57.330Z,7.25
2018-12-08T08:23:24.819Z,5.90
2018-12-08T08:25:53.114Z,5.73
2018-12-08T08:28:20.670Z,7.80
2018-12-08T08:30:49.201Z,10.33
2018-12-08T08:33:16.711Z,6.37
2018-12-08T08:35:44.193Z,10.33
2018-12-08T08:38:12.777Z,7.27
2018-12-08T08:40:40.268Z,5.30
2018-12-08T08:43:07.738Z,9.30
2018-12-08T08:45:35.333Z,7.47
2018-12-08T08:48:02.913Z,7.47
2018-12-08T08:50:30.401Z,7.47
2018-12-08T08:52:57.863Z,5.92
2018-12-08T08:55:26.288Z,7.27
2018-12-08T08:57:53.949Z,8.30
2018-12-08T09:00:21.436Z,6.23
2018-12-08T09:02:48.927Z,7.80
2018-12-08T09:05:16.438Z,7.00
2018-12-08T09:07:43.915Z,8.90
2018-12-08T09:10:11.402Z,8.73
2018-12-08T09:12:38.873Z,8.27
2018-12-08T09:15:07.479Z,8.28
2018-12-08T09:17:34.950Z,9.23
2018-12-08T09:20:02.487Z,8.77
2018-12-08T09:22:29.953Z,7.97
2018-12-08T09:24:57.456Z,6.90
2018-12-08T09:27:24.923Z,8.03
2018-12-08T09:29:52.450Z,8.47
2018-12-08T09:32:19.915Z,13.83
2018-12-08T09:34:47.392Z,14.03
2018-12-08T09:37:14.893Z,7.07
2018-12-08T09:39:42.373Z,8.10
2018-12-08T09:42:15.423Z,7.93
2018-12-08T09:44:42.913Z,9.17
2018-12-08T09:47:10.392Z,9.03
2018-12-08T09:49:37.871Z,7.53
2018-12-08T09:52:05.336Z,6.83
2018-12-08T09:54:32.844Z,8.30
2018-12-08T09:57:00.306Z,9.50
2018-12-08T09:59:27.798Z,7.00
2018-12-08T10:01:55.275Z,7.83
2018-12-08T10:04:22.775Z,7.63
2018-12-08T10:06:50.332Z,7.40
2018-12-08T10:09:17.802Z,6.90
2018-12-08T10:11:45.460Z,5.03
2018-12-08T10:14:12.927Z,7.13
2018-12-08T10:16:40.402Z,7.80
2018-12-08T10:19:07.890Z,6.70
2018-12-08T10:21:35.358Z,9.23
2018-12-08T10:24:02.850Z,10.87
2018-12-08T10:26:30.335Z,7.57
2018-12-08T10:28:57.833Z,8.00
2018-12-08T10:31:25.311Z,8.17
2018-12-08T10:33:52.768Z,7.87
2018-12-08T10:36:20.253Z,6.37
2018-12-08T10:38:47.724Z,10.70
2018-12-08T10:41:15.226Z,10.10
2018-12-08T10:43:42.698Z,8.10
2018-12-08T10:46:10.179Z,8.23
2018-12-08T10:48:37.669Z,9.40
2018-12-08T10:51:05.151Z,10.30
2018-12-08T10:53:32.629Z,10.07
2018-12-08T10:56:00.180Z,10.97
2018-12-08T10:58:27.645Z,10.72
2018-12-08T11:01:00.751Z,10.53
2018-12-08T11:03:28.291Z,13.72
2018-12-08T11:05:55.797Z,7.97
2018-12-08T11:08:23.290Z,9.33
2018-12-08T11:10:50.802Z,15.40
2018-12-08T11:13:18.321Z,15.15
2018-12-08T11:15:45.825Z,10.43
2018-12-08T11:18:13.362Z,11.40
2018-12-08T11:20:40.897Z,9.47
2018-12-08T11:23:08.467Z,12.10
2018-12-08T11:25:35.967Z,11.50
2018-12-08T11:28:03.470Z,9.97
2018-12-08T11:30:31.442Z,13.13
2018-12-08T11:32:59.129Z,9.65
2018-12-08T11:35:26.629Z,11.18
2018-12-08T11:37:54.152Z,8.85
2018-12-08T11:40:21.673Z,11.00
2018-12-08T11:42:49.155Z,9.95
2018-12-08T11:45:16.652Z,17.80
2018-12-08T11:47:44.129Z,10.78
2018-12-08T11:50:11.623Z,14.85
2018-12-08T11:52:39.111Z,14.28
2018-12-08T11:55:06.590Z,12.35
2018-12-08T11:57:34.069Z,11.30
2018-12-08T12:00:01.618Z,11.05
2018-12-08T12:02:29.103Z,11.65
2018-12-08T12:04:56.589Z,9.98
2018-12-08T12:07:24.124Z,14.18
2018-12-08T12:09:51.602Z,7.37
2018-12-08T12:12:19.125Z,12.33
2018-12-08T12:14:46.662Z,10.23
2018-12-08T12:17:14.163Z,8.85
2018-12-08T12:19:41.645Z,11.60
2018-12-08T12:22:09.166Z,10.13
2018-12-08T12:24:36.650Z,8.95
2018-12-08T12:27:04.139Z,12.40
2018-12-08T12:29:31.610Z,9.20
2018-12-08T12:31:59.175Z,15.23
2018-12-08T12:34:26.752Z,10.38
2018-12-08T12:36:54.237Z,7.72
2018-12-08T12:39:21.709Z,12.13
2018-12-08T12:41:49.208Z,17.80
2018-12-08T12:44:16.758Z,10.78
2018-12-08T12:46:44.250Z,14.20
2018-12-08T12:49:11.883Z,15.58
2018-12-08T12:51:39.378Z,13.25
2018-12-08T12:54:06.867Z,13.03
2018-12-08T12:56:34.362Z,11.18
2018-12-08T12:59:02.031Z,9.00
2018-12-08T13:01:29.531Z,12.53
2018-12-08T13:03:58.800Z,12.07
2018-12-08T13:06:26.281Z,7.47
2018-12-08T13:08:54.043Z,7.40
2018-12-08T13:11:21.599Z,11.63
2018-12-08T13:13:49.079Z,12.88
2018-12-08T13:16:16.558Z,9.33
2018-12-08T13:18:44.104Z,9.03
2018-12-08T13:21:11.595Z,9.93
2018-12-08T13:23:39.147Z,11.88
2018-12-08T13:26:06.651Z,10.32
2018-12-08T13:28:34.123Z,10.25
2018-12-08T13:31:01.622Z,11.08
2018-12-08T13:33:29.200Z,11.55
2018-12-08T13:35:56.681Z,18.27
2018-12-08T13:38:24.156Z,9.38
2018-12-08T13:40:51.715Z,9.83
2018-12-08T13:43:19.187Z,11.20
2018-12-08T13:45:46.697Z,8.75
2018-12-08T13:48:15.448Z,14.45
2018-12-08T13:50:43.344Z,14.50
2018-12-08T13:53:10.830Z,12.30
2018-12-08T13:55:38.438Z,11.55
2018-12-08T13:58:05.948Z,13.65
2018-12-08T14:00:33.535Z,8.55
2018-12-08T14:03:01.034Z,10.38
2018-12-08T14:05:28.603Z,11.70
2018-12-08T14:07:56.101Z,14.28
2018-12-08T14:10:23.658Z,11.38
2018-12-08T14:12:51.139Z,11.30
2018-12-08T14:15:18.703Z,13.83
2018-12-08T14:17:46.222Z,7.92
2018-12-08T14:20:22.849Z,13.70
2018-12-08T14:22:50.338Z,10.10
2018-12-08T14:25:19.090Z,8.68
2018-12-08T14:27:46.605Z,10.65
2018-12-08T14:30:14.139Z,11.30
2018-12-08T14:32:41.634Z,7.22
2018-12-08T14:35:09.124Z,14.55
2018-12-08T14:37:36.681Z,14.65
2018-12-08T14:40:05.493Z,8.75
2018-12-08T14:42:33.110Z,11.80
2018-12-08T14:45:00.600Z,10.60
2018-12-08T14:47:28.121Z,12.10
2018-12-08T14:49:55.602Z,11.55
2018-12-08T14:52:23.206Z,13.65
2018-12-08T14:54:50.684Z,12.73
2018-12-08T14:57:18.270Z,7.40
2018-12-08T14:59:45.762Z,8.03
2018-12-08T15:02:13.330Z,12.95
2018-12-08T15:04:40.807Z,10.25
2018-12-08T15:07:08.363Z,9.45
2018-12-08T15:09:42.220Z,10.13
2018-12-08T15:12:09.720Z,11.25
2018-12-08T15:14:37.226Z,10.58
2018-12-08T15:17:04.846Z,13.58
2018-12-08T15:19:32.355Z,9.15
2018-12-08T15:21:59.849Z,8.75
2018-12-08T15:24:27.344Z,7.67
2018-12-08T15:26:54.893Z,12.73
2018-12-08T15:29:22.347Z,10.98
2018-12-08T15:31:49.946Z,10.40
2018-12-08T15:34:17.435Z,10.05
2018-12-08T15:36:45.035Z,10.18
2018-12-08T15:39:12.664Z,7.85
2018-12-08T15:41:40.219Z,12.43
2018-12-08T15:44:07.699Z,9.03
2018-12-08T15:46:35.186Z,9.60
2018-12-08T15:49:02.769Z,10.35
2018-12-08T15:51:30.321Z,9.90
2018-12-08T15:53:59.258Z,8.63
2018-12-08T15:56:26.758Z,9.00
2018-12-08T15:58:54.345Z,11.85
2018-12-08T16:01:21.826Z,8.75
2018-12-08T16:03:49.304Z,8.43
2018-12-08T16:06:16.792Z,8.55
2018-12-08T16:08:44.441Z,7.62
2018-12-08T16:11:12.013Z,13.18
2018-12-08T16:13:39.665Z,5.92
2018-12-08T16:16:07.183Z,10.50
2018-12-08T16:18:34.670Z,8.13
2018-12-08T16:21:02.241Z,11.05
2018-12-08T16:23:29.832Z,13.58
2018-12-08T16:25:57.310Z,7.50
2018-12-08T16:28:24.806Z,11.12
2018-12-08T16:30:52.328Z,11.40
2018-12-08T16:33:19.848Z,10.38
2018-12-08T16:35:47.409Z,11.03
2018-12-08T16:38:14.909Z,8.25
2018-12-08T16:40:42.676Z,10.63
2018-12-08T16:43:10.229Z,12.65
2018-12-08T16:45:37.744Z,9.43
2018-12-08T16:48:05.240Z,14.47
2018-12-08T16:50:32.732Z,10.20
2018-12-08T16:53:00.298Z,8.75
2018-12-08T16:55:27.860Z,8.08
2018-12-08T16:57:55.355Z,7.62
2018-12-08T17:00:22.827Z,12.40
2018-12-08T17:02:50.323Z,8.28
2018-12-08T17:05:17.960Z,12.98
2018-12-08T17:07:45.454Z,9.45
2018-12-08T17:10:13.063Z,12.93
2018-12-08T17:12:40.543Z,8.15
2018-12-08T17:15:08.058Z,13.48
2018-12-08T17:17:35.555Z,11.57
2018-12-08T17:20:04.239Z,15.30
2018-12-08T17:22:31.724Z,11.57
2018-12-08T17:24:59.277Z,10.75
2018-12-08T17:27:26.762Z,16.20
2018-12-08T17:29:54.357Z,13.98
2018-12-08T17:32:21.853Z,13.35
2018-12-08T17:34:49.341Z,10.58
2018-12-08T17:37:16.844Z,16.65
2018-12-08T17:39:44.345Z,14.70
2018-12-08T17:42:11.832Z,14.95
2018-12-08T17:44:39.411Z,13.83
2018-12-08T17:47:06.904Z,13.08
2018-12-08T17:49:35.391Z,14.30
2018-12-08T17:52:02.893Z,10.25
2018-12-08T17:54:30.365Z,14.75
2018-12-08T17:56:57.869Z,13.50
2018-12-08T17:59:25.416Z,18.00
2018-12-08T18:01:52.938Z,18.30
2018-12-08T18:04:20.448Z,15.95
2018-12-08T18:06:47.950Z,12.82
2018-12-08T18:09:15.464Z,16.07
2018-12-08T18:11:42.966Z,21.20
2018-12-08T18:14:10.479Z,16.85
2018-12-08T18:16:39.006Z,15.58
2018-12-08T18:19:06.491Z,16.93
2018-12-08T18:21:33.976Z,14.63
2018-12-08T18:24:01.586Z,16.52
2018-12-08T18:26:29.066Z,14.70
2018-12-08T18:28:56.754Z,18.35
2018-12-08T18:31:24.273Z,17.57
2018-12-08T18:33:51.763Z,16.40
2018-12-08T18:36:19.255Z,18.20
2018-12-08T18:38:46.749Z,19.45
2018-12-08T18:41:14.230Z,13.88
2018-12-08T18:43:41.762Z,18.27
2018-12-08T18:46:09.245Z,14.35
2018-12-08T18:48:36.770Z,20.45
2018-12-08T18:51:04.251Z,18.65
2018-12-08T18:53:31.733Z,15.25
2018-12-08T18:55:59.282Z,18.07
2018-12-08T18:58:26.808Z,14.78
2018-12-08T19:00:54.332Z,15.58
2018-12-08T19:03:21.919Z,17.77
2018-12-08T19:05:49.424Z,19.85
2018-12-08T19:08:17.073Z,12.82
2018-12-08T19:10:44.571Z,14.00
2018-12-08T19:13:12.072Z,13.10
2018-12-08T19:15:39.586Z,14.13
2018-12-08T19:18:07.076Z,13.95
2018-12-08T19:20:34.676Z,12.50
2018-12-08T19:23:02.194Z,14.58
2018-12-08T19:25:29.694Z,10.88
2018-12-08T19:27:57.206Z,14.60
2018-12-08T19:30:24.685Z,7.92
2018-12-08T19:32:52.170Z,8.25
2018-12-08T19:35:19.654Z,7.15
2018-12-08T19:37:47.188Z,8.45
2018-12-08T19:40:14.687Z,6.90
2018-12-08T19:42:42.175Z,6.83
2018-12-08T19:45:09.720Z,8.23
2018-12-08T19:47:37.181Z,5.60
2018-12-08T19:50:05.730Z,7.65
2018-12-08T19:52:33.214Z,7.90
2018-12-08T19:55:00.709Z,8.70
2018-12-08T19:57:28.185Z,4.50
2018-12-08T19:59:56.803Z,7.42
2018-12-08T20:02:24.275Z,7.75
2018-12-08T20:04:51.763Z,3.98
2018-12-08T20:07:19.239Z,5.10
2018-12-08T20:09:46.935Z,4.17
2018-12-08T20:12:14.411Z,3.47
2018-12-08T20:14:41.901Z,4.72
2018-12-08T20:17:09.390Z,4.87
2018-12-08T20:19:36.870Z,4.53
2018-12-08T20:22:04.349Z,2.55
2018-12-08T20:24:31.836Z,4.65
2018-12-08T20:26:59.328Z,3.58
2018-12-08T20:29:26.806Z,3.58
2018-12-08T20:31:54.293Z,3.50
2018-12-08T20:34:22.120Z,3.17
2018-12-08T20:36:49.621Z,3.33
2018-12-08T20:39:17.136Z,3.15
2018-12-08T20:41:44.613Z,3.60
2018-12-08T20:44:12.090Z,2.75
2018-12-08T20:46:39.614Z,3.30
2018-12-08T20:49:07.106Z,1.72
2018-12-08T20:51:34.636Z,2.00
2018-12-08T20:54:02.126Z,2.15
2018-12-08T20:56:29.649Z,3.27
2018-12-08T20:58:57.132Z,2.17
2018-12-08T21:01:24.637Z,2.20
2018-12-08T21:03:52.115Z,3.15
2018-12-08T21:06:19.609Z,1.45
2018-12-08T21:08:47.106Z,2.08
2018-12-08T21:11:14.593Z,2.22
2018-12-08T21:13:42.094Z,1.82
2018-12-08T21:16:09.610Z,2.45
2018-12-08T21:18:37.085Z,1.65
2018-12-08T21:21:04.575Z,1.32
2018-12-08T21:23:32.083Z,1.47
2018-12-08T21:25:59.605Z,1.15
2018-12-08T21:28:27.126Z,1.57
2018-12-08T21:30:56.703Z,2.60
2018-12-08T21:33:24.203Z,2.27
2018-12-08T21:35:51.717Z,1.42
2018-12-08T21:38:19.190Z,1.32
2018-12-08T21:40:46.734Z,3.12
2018-12-08T21:43:14.211Z,1.35
2018-12-08T21:45:41.719Z,1.37
2018-12-08T21:48:09.216Z,1.70
2018-12-08T21:50:36.721Z,4.70
2018-12-08T21:53:04.209Z,1.77
2018-12-08T21:55:31.700Z,1.62
2018-12-08T21:57:59.198Z,2.52
2018-12-08T22:00:28.728Z,2.65
2018-12-08T22:02:56.211Z,1.37
2018-12-08T22:05:23.757Z,4.40
2018-12-08T22:07:51.252Z,2.08
2018-12-08T22:10:18.817Z,2.42
2018-12-08T22:12:46.323Z,1.30
2018-12-08T22:15:16.217Z,2.20
2018-12-08T22:17:44.107Z,1.45
2018-12-08T22:20:11.577Z,1.85
2018-12-08T22:22:39.059Z,2.60
2018-12-08T22:25:06.554Z,3.60
2018-12-08T22:27:34.053Z,2.25
2018-12-08T22:30:01.542Z,4.67
2018-12-08T22:32:29.055Z,4.80
2018-12-08T22:34:56.730Z,4.08
2018-12-08T22:37:24.270Z,4.70
2018-12-08T22:39:51.754Z,5.90
2018-12-08T22:42:19.236Z,3.52
2018-12-08T22:44:46.721Z,5.22
2018-12-08T22:47:14.286Z,3.92
2018-12-08T22:49:41.771Z,2.70
2018-12-08T22:52:09.253Z,7.78
2018-12-08T22:54:36.730Z,7.22
2018-12-08T22:57:05.543Z,7.33
2018-12-08T22:59:33.028Z,7.53
2018-12-08T23:02:00.573Z,4.90
2018-12-08T23:04:28.049Z,6.50
2018-12-08T23:06:59.583Z,8.40
2018-12-08T23:09:27.074Z,7.22
2018-12-08T23:11:54.648Z,8.50
2018-12-08T23:14:22.136Z,10.38
2018-12-08T23:16:49.662Z,12.80
2018-12-08T23:19:17.135Z,19.77
2018-12-08T23:21:44.727Z,12.40
2018-12-08T23:24:12.210Z,6.95
2018-12-08T23:26:41.771Z,6.72
2018-12-08T23:29:09.254Z,4.08
2018-12-08T23:31:36.786Z,6.47
2018-12-08T23:34:04.270Z,5.55
2018-12-08T23:36:31.851Z,4.42
2018-12-08T23:38:59.398Z,5.83
2018-12-08T23:41:27.006Z,5.28
2018-12-08T23:43:54.492Z,5.17
2018-12-08T23:46:22.071Z,4.47
2018-12-08T23:48:49.550Z,4.22
2018-12-08T23:51:18.537Z,3.87
2018-12-08T23:53:46.215Z,4.62
2018-12-08T23:56:13.710Z,4.28
2018-12-08T23:58:41.204Z,3.33
